createdAt,value
2023-03-24T00:03:19.432Z,8.09
2023-03-24T00:06:49.367Z,8.05
2023-03-24T00:10:18.585Z,8.02
2023-03-24T00:13:47.314Z,7.98
2023-03-24T00:17:17.703Z,7.98
2023-03-24T00:20:46.375Z,7.99
2023-03-24T00:24:14.632Z,8.00
2023-03-24T00:27:41.930Z,8.04
2023-03-24T00:31:11.033Z,8.09
2023-03-24T00:34:38.656Z,8.15
2023-03-24T00:38:06.003Z,8.22
2023-03-24T00:41:33.342Z,8.29
2023-03-24T00:45:00.320Z,8.36
2023-03-24T00:48:27.480Z,8.42
2023-03-24T00:51:58.185Z,8.47
2023-03-24T00:55:28.651Z,8.52
2023-03-24T00:58:57.840Z,8.57
2023-03-24T01:02:27.851Z,8.63
2023-03-24T01:05:57.832Z,8.67
2023-03-24T01:09:25.426Z,8.71
2023-03-24T01:12:52.527Z,8.74
2023-03-24T01:16:20.399Z,8.77
2023-03-24T01:19:47.557Z,8.80
2023-03-24T01:23:17.325Z,8.82
2023-03-24T01:26:44.539Z,8.85
2023-03-24T01:30:15.285Z,8.90
2023-03-24T01:33:42.695Z,8.96
2023-03-24T01:37:09.935Z,9.02
2023-03-24T01:40:38.957Z,9.07
2023-03-24T01:44:27.309Z,9.10
2023-03-24T01:47:54.493Z,9.13
2023-03-24T01:51:24.642Z,9.16
2023-03-24T01:54:54.694Z,9.18
2023-03-24T01:58:24.316Z,9.19
2023-03-24T02:02:10.035Z,9.20
2023-03-24T02:05:58.852Z,9.20
2023-03-24T02:09:26.186Z,9.19
2023-03-24T02:12:53.685Z,9.17
2023-03-24T02:16:34.522Z,9.14
2023-03-24T02:20:27.756Z,9.10
2023-03-24T02:24:18.135Z,9.06
2023-03-24T02:28:07.170Z,9.04
2023-03-24T02:31:55.922Z,9.02
2023-03-24T02:35:44.984Z,9.01
2023-03-24T02:39:32.325Z,9.03
2023-03-24T02:43:11.108Z,9.02
2023-03-24T02:46:46.196Z,9.03
2023-03-24T02:50:27.064Z,9.04
2023-03-24T02:54:04.467Z,9.05
2023-03-24T02:57:37.044Z,9.06
2023-03-24T03:01:13.923Z,9.08
2023-03-24T03:05:14.014Z,9.11
2023-03-24T03:08:42.817Z,9.16
2023-03-24T03:12:12.930Z,9.22
2023-03-24T03:15:44.275Z,9.29
2023-03-24T03:19:18.207Z,9.36
2023-03-24T03:22:49.915Z,9.40
2023-03-24T03:26:20.122Z,9.42
2023-03-24T03:29:54.486Z,9.43
2023-03-24T03:33:26.255Z,9.41
2023-03-24T03:37:00.065Z,9.41
2023-03-24T03:40:32.826Z,9.39
2023-03-24T03:44:05.807Z,9.38
2023-03-24T03:47:34.546Z,9.37
2023-03-24T03:51:12.929Z,9.35
2023-03-24T03:54:43.857Z,9.32
2023-03-24T03:58:11.263Z,9.29
2023-03-24T04:01:42.055Z,9.27
2023-03-24T04:05:36.957Z,9.27
2023-03-24T04:09:19.882Z,9.27
2023-03-24T04:13:01.204Z,9.29
2023-03-24T04:17:15.882Z,9.31
2023-03-24T04:20:52.082Z,9.32
2023-03-24T04:24:29.748Z,9.33
2023-03-24T04:28:03.811Z,9.35
2023-03-24T04:31:37.322Z,9.37
2023-03-24T04:35:10.034Z,9.40
2023-03-24T04:39:05.197Z,9.45
2023-03-24T04:42:45.324Z,9.50
2023-03-24T04:46:18.089Z,9.55
2023-03-24T04:50:12.611Z,9.59
2023-03-24T04:53:40.164Z,9.64
2023-03-24T04:57:08.081Z,9.70
2023-03-24T05:00:45.157Z,9.76
2023-03-24T05:04:14.018Z,9.83
2023-03-24T05:07:41.169Z,9.91
2023-03-24T05:11:11.362Z,10.01
2023-03-24T05:14:42.073Z,10.09
2023-03-24T05:18:10.164Z,10.17
2023-03-24T05:21:37.563Z,10.26
2023-03-24T05:25:06.314Z,10.32
2023-03-24T05:28:33.940Z,10.40
2023-03-24T05:32:01.890Z,10.49
2023-03-24T05:35:30.739Z,10.58
2023-03-24T05:38:57.880Z,10.68
2023-03-24T05:42:31.726Z,10.76
2023-03-24T05:46:00.278Z,10.82
2023-03-24T05:49:30.753Z,10.89
2023-03-24T05:52:58.426Z,10.93
2023-03-24T05:56:49.372Z,10.99
2023-03-24T06:00:27.255Z,11.04
2023-03-24T06:03:58.401Z,11.09
2023-03-24T06:07:26.984Z,11.15
2023-03-24T06:10:55.293Z,11.23
2023-03-24T06:14:22.780Z,11.30
2023-03-24T06:18:01.160Z,11.38
2023-03-24T06:21:35.393Z,11.47
2023-03-24T06:25:05.235Z,11.55
2023-03-24T06:28:34.677Z,11.63
2023-03-24T06:32:05.713Z,11.69
2023-03-24T06:35:38.312Z,11.77
2023-03-24T06:39:09.734Z,11.83
2023-03-24T06:42:37.630Z,11.93
2023-03-24T06:46:05.450Z,12.05
2023-03-24T06:49:34.901Z,12.13
2023-03-24T06:53:01.988Z,12.19
2023-03-24T06:56:30.690Z,12.22
2023-03-24T06:59:59.047Z,12.22
2023-03-24T07:03:30.758Z,12.26
2023-03-24T07:07:56.996Z,12.30
2023-03-24T07:11:29.258Z,12.31
2023-03-24T07:15:00.462Z,12.35
2023-03-24T07:18:28.219Z,12.40
2023-03-24T07:21:59.951Z,12.44
2023-03-24T07:25:37.699Z,12.51
2023-03-24T07:29:18.452Z,12.58
2023-03-24T07:33:12.162Z,12.65
2023-03-24T07:36:39.569Z,12.71
2023-03-24T07:40:12.935Z,12.76
2023-03-24T07:43:40.185Z,12.83
2023-03-24T07:47:25.429Z,12.85
2023-03-24T07:50:55.173Z,12.85
2023-03-24T07:54:41.043Z,12.86
2023-03-24T07:58:09.243Z,12.87
2023-03-24T08:01:39.045Z,12.88
2023-03-24T08:05:10.373Z,12.89
2023-03-24T08:08:49.584Z,12.89
2023-03-24T08:12:20.513Z,12.98
2023-03-24T08:15:48.329Z,13.09
2023-03-24T08:19:16.538Z,13.24
2023-03-24T08:22:45.014Z,13.44
2023-03-24T08:26:13.182Z,13.65
2023-03-24T08:29:40.682Z,13.89
2023-03-24T08:33:08.434Z,14.18
2023-03-24T08:36:36.509Z,14.41
2023-03-24T08:40:05.675Z,14.55
2023-03-24T08:43:33.768Z,14.72
2023-03-24T08:47:01.865Z,14.90
2023-03-24T08:50:31.495Z,15.09
2023-03-24T08:53:56.949Z,15.37
2023-03-24T08:57:24.298Z,15.64
2023-03-24T09:00:52.217Z,15.82
2023-03-24T09:04:19.423Z,15.98
2023-03-24T09:07:47.419Z,16.12
2023-03-24T09:11:20.328Z,16.19
2023-03-24T09:14:52.260Z,16.26
2023-03-24T09:18:21.614Z,16.36
2023-03-24T09:21:50.257Z,16.48
2023-03-24T09:25:22.668Z,16.51
2023-03-24T09:28:49.775Z,16.48
2023-03-24T09:32:16.868Z,16.51
2023-03-24T09:35:44.620Z,16.62
2023-03-24T09:39:11.733Z,16.81
2023-03-24T09:42:42.444Z,17.02
2023-03-24T09:46:16.109Z,17.15
2023-03-24T09:49:45.524Z,17.17
2023-03-24T09:53:29.108Z,17.11
2023-03-24T09:56:58.796Z,16.98
2023-03-24T10:00:28.992Z,16.89
2023-03-24T10:04:00.497Z,16.85
2023-03-24T10:07:33.879Z,16.76
2023-03-24T10:11:06.368Z,16.66
2023-03-24T10:14:51.355Z,16.59
2023-03-24T10:18:36.036Z,16.60
2023-03-24T10:22:12.386Z,16.62
2023-03-24T10:25:51.209Z,16.61
2023-03-24T10:29:26.402Z,16.58
2023-03-24T10:32:55.167Z,16.52
2023-03-24T10:36:25.203Z,16.40
2023-03-24T10:39:53.494Z,16.26
2023-03-24T10:43:23.727Z,16.08
2023-03-24T10:46:55.382Z,15.97
2023-03-24T10:50:28.393Z,15.89
2023-03-24T10:54:17.501Z,15.88
2023-03-24T10:57:47.564Z,16.02
2023-03-24T11:01:26.313Z,16.19
2023-03-24T11:04:58.961Z,16.26
2023-03-24T11:08:32.962Z,16.27
2023-03-24T11:12:06.235Z,16.21
2023-03-24T11:15:37.426Z,16.17
2023-03-24T11:19:07.792Z,16.18
2023-03-24T11:22:34.942Z,16.21
2023-03-24T11:26:16.868Z,16.28
2023-03-24T11:29:50.008Z,16.32
2023-03-24T11:33:36.159Z,16.37
2023-03-24T11:37:06.410Z,16.44
2023-03-24T11:40:33.892Z,16.49
2023-03-24T11:44:17.154Z,16.65
2023-03-24T11:47:46.239Z,16.89
2023-03-24T11:51:18.996Z,17.13
2023-03-24T11:54:46.748Z,17.37
2023-03-24T11:58:25.009Z,17.62
2023-03-24T12:02:00.526Z,17.88
2023-03-24T12:05:38.006Z,18.19
2023-03-24T12:09:15.068Z,18.50
2023-03-24T12:12:51.707Z,18.73
2023-03-24T12:16:39.802Z,18.86
2023-03-24T12:20:18.355Z,19.02
2023-03-24T12:23:58.578Z,19.21
2023-03-24T12:27:36.848Z,19.34
2023-03-24T12:31:16.182Z,19.38
2023-03-24T12:35:22.655Z,19.45
2023-03-24T12:39:02.555Z,19.55
2023-03-24T12:42:38.930Z,19.70
2023-03-24T12:46:17.279Z,19.78
2023-03-24T12:49:54.213Z,19.73
2023-03-24T12:53:53.806Z,19.72
2023-03-24T12:57:26.309Z,19.74
2023-03-24T13:01:02.994Z,19.77
2023-03-24T13:04:34.947Z,19.84
2023-03-24T13:08:06.658Z,19.80
2023-03-24T13:11:41.404Z,19.60
2023-03-24T13:15:17.490Z,19.32
2023-03-24T13:18:48.822Z,19.15
2023-03-24T13:22:21.509Z,19.04
2023-03-24T13:25:55.441Z,19.00
2023-03-24T13:29:48.496Z,18.95
2023-03-24T13:33:21.357Z,18.88
2023-03-24T13:36:52.810Z,18.81
2023-03-24T13:40:26.864Z,18.83
2023-03-24T13:44:02.594Z,18.84
2023-03-24T13:47:48.469Z,18.83
2023-03-24T13:51:21.738Z,18.83
2023-03-24T13:54:52.080Z,18.85
2023-03-24T13:58:23.847Z,18.85
2023-03-24T14:02:21.999Z,18.84
2023-03-24T14:06:04.863Z,18.87
2023-03-24T14:09:34.237Z,18.95
2023-03-24T14:13:19.451Z,18.97
2023-03-24T14:16:53.133Z,18.99
2023-03-24T14:20:40.050Z,19.01
2023-03-24T14:24:23.970Z,18.94
2023-03-24T14:27:53.466Z,18.79
2023-03-24T14:31:29.290Z,18.57
2023-03-24T14:35:00.226Z,18.33
2023-03-24T14:38:28.927Z,18.12
2023-03-24T14:41:59.021Z,17.95
2023-03-24T14:46:01.384Z,17.80
2023-03-24T14:49:33.692Z,17.65
2023-03-24T14:53:04.177Z,17.50
2023-03-24T14:56:37.015Z,17.39
2023-03-24T15:00:12.052Z,17.30
2023-03-24T15:03:50.927Z,17.21
2023-03-24T15:07:18.739Z,17.10
2023-03-24T15:10:50.975Z,16.97
2023-03-24T15:14:24.946Z,16.80
2023-03-24T15:17:53.142Z,16.52
2023-03-24T15:21:27.616Z,16.16
2023-03-24T15:24:59.507Z,15.71
2023-03-24T15:28:29.782Z,15.28
2023-03-24T15:31:57.031Z,14.94
2023-03-24T15:35:25.575Z,14.68
2023-03-24T15:38:53.593Z,14.44
2023-03-24T15:42:24.378Z,14.25
2023-03-24T15:46:08.881Z,14.06
2023-03-24T15:49:39.987Z,13.90
2023-03-24T15:53:24.719Z,13.77
2023-03-24T15:57:11.750Z,13.64
2023-03-24T16:00:42.447Z,13.51
2023-03-24T16:04:14.373Z,13.39
2023-03-24T16:07:42.844Z,13.27
2023-03-24T16:11:12.202Z,13.13
2023-03-24T16:14:40.038Z,13.06
2023-03-24T16:18:07.709Z,13.05
2023-03-24T16:21:34.756Z,12.99
2023-03-24T16:25:03.710Z,12.93
2023-03-24T16:28:32.818Z,12.87
2023-03-24T16:32:01.062Z,12.83
2023-03-24T16:35:28.654Z,12.83
2023-03-24T16:38:57.753Z,12.81
2023-03-24T16:42:24.784Z,12.77
2023-03-24T16:45:53.163Z,12.74
2023-03-24T16:49:23.076Z,12.70
2023-03-24T16:52:50.485Z,12.65
2023-03-24T16:56:19.924Z,12.59
2023-03-24T16:59:46.964Z,12.53
2023-03-24T17:03:14.999Z,12.45
2023-03-24T17:06:44.502Z,12.35
2023-03-24T17:10:12.543Z,12.23
2023-03-24T17:13:39.608Z,12.13
2023-03-24T17:17:11.522Z,12.03
2023-03-24T17:20:40.121Z,11.94
2023-03-24T17:24:10.993Z,11.84
2023-03-24T17:27:38.230Z,11.75
2023-03-24T17:31:05.472Z,11.67
2023-03-24T17:34:32.539Z,11.60
2023-03-24T17:37:59.548Z,11.54
2023-03-24T17:41:26.615Z,11.49
2023-03-24T17:44:53.780Z,11.44
2023-03-24T17:48:22.332Z,11.36
2023-03-24T17:51:52.579Z,11.27
2023-03-24T17:55:25.811Z,11.18
2023-03-24T17:58:58.950Z,11.10
2023-03-24T18:02:27.753Z,11.02
2023-03-24T18:05:56.246Z,10.95
2023-03-24T18:09:25.789Z,10.90
2023-03-24T18:12:55.161Z,10.85
2023-03-24T18:16:22.451Z,10.80
2023-03-24T18:19:50.379Z,10.74
2023-03-24T18:23:17.574Z,10.68
2023-03-24T18:26:44.768Z,10.60
2023-03-24T18:30:14.801Z,10.55
2023-03-24T18:33:42.996Z,10.49
2023-03-24T18:37:10.111Z,10.42
2023-03-24T18:40:37.145Z,10.36
2023-03-24T18:44:05.735Z,10.29
2023-03-24T18:47:32.788Z,10.22
2023-03-24T18:50:59.973Z,10.11
2023-03-24T18:54:27.387Z,10.00
2023-03-24T18:57:54.785Z,9.88
2023-03-24T19:01:23.594Z,9.76
2023-03-24T19:04:51.037Z,9.64
2023-03-24T19:08:19.005Z,9.53
2023-03-24T19:11:46.343Z,9.43
2023-03-24T19:15:15.313Z,9.35
2023-03-24T19:18:43.994Z,9.27
2023-03-24T19:22:11.759Z,9.18
2023-03-24T19:25:42.756Z,9.09
2023-03-24T19:29:10.448Z,9.01
2023-03-24T19:32:40.143Z,8.93
2023-03-24T19:36:06.638Z,8.86
2023-03-24T19:39:34.672Z,8.81
2023-03-24T19:43:05.798Z,8.76
2023-03-24T19:46:35.130Z,8.72
2023-03-24T19:50:04.119Z,8.68
2023-03-24T19:53:32.019Z,8.64
2023-03-24T19:56:59.802Z,8.62
2023-03-24T20:00:30.104Z,8.61
2023-03-24T20:03:58.634Z,8.58
2023-03-24T20:07:26.684Z,8.57
2023-03-24T20:10:55.235Z,8.55
2023-03-24T20:14:24.473Z,8.54
2023-03-24T20:17:54.151Z,8.52
2023-03-24T20:21:24.104Z,8.51
2023-03-24T20:24:51.606Z,8.51
2023-03-24T20:28:19.128Z,8.51
2023-03-24T20:31:46.324Z,8.51
2023-03-24T20:35:14.048Z,8.51
2023-03-24T20:38:41.656Z,8.49
2023-03-24T20:42:08.763Z,8.46
2023-03-24T20:45:35.777Z,8.43
2023-03-24T20:49:02.786Z,8.40
2023-03-24T20:52:30.085Z,8.38
2023-03-24T20:56:01.995Z,8.35
2023-03-24T20:59:30.147Z,8.30
2023-03-24T21:02:57.565Z,8.25
2023-03-24T21:06:25.075Z,8.20
2023-03-24T21:09:52.175Z,8.16
2023-03-24T21:13:21.653Z,8.12
2023-03-24T21:16:49.250Z,8.08
2023-03-24T21:20:16.838Z,8.05
2023-03-24T21:23:44.479Z,8.01
2023-03-24T21:27:11.606Z,7.98
2023-03-24T21:30:39.640Z,7.94
2023-03-24T21:34:06.760Z,7.89
2023-03-24T21:37:33.912Z,7.84
2023-03-24T21:41:02.133Z,7.80
2023-03-24T21:44:30.169Z,7.76
2023-03-24T21:47:57.519Z,7.71
2023-03-24T21:51:26.756Z,7.66
2023-03-24T21:54:58.367Z,7.62
2023-03-24T21:58:26.300Z,7.55
2023-03-24T22:01:53.576Z,7.51
2023-03-24T22:05:23.167Z,7.46
2023-03-24T22:08:50.622Z,7.41
2023-03-24T22:12:17.690Z,7.36
2023-03-24T22:15:44.682Z,7.31
2023-03-24T22:19:11.646Z,7.27
2023-03-24T22:22:39.931Z,7.23
2023-03-24T22:26:09.270Z,7.19
2023-03-24T22:29:36.338Z,7.15
2023-03-24T22:33:03.455Z,7.13
2023-03-24T22:36:30.637Z,7.09
2023-03-24T22:39:57.792Z,7.08
2023-03-24T22:43:24.845Z,7.07
2023-03-24T22:46:52.082Z,7.05
2023-03-24T22:50:19.564Z,7.02
2023-03-24T22:53:47.234Z,7.00
2023-03-24T22:57:14.297Z,6.97
2023-03-24T23:00:41.725Z,6.93
2023-03-24T23:04:09.039Z,6.87
2023-03-24T23:07:36.095Z,6.81
2023-03-24T23:11:04.152Z,6.74
2023-03-24T23:14:31.414Z,6.67
2023-03-24T23:17:58.576Z,6.61
2023-03-24T23:21:25.729Z,6.58
2023-03-24T23:25:02.390Z,6.54
2023-03-24T23:28:31.861Z,6.50
2023-03-24T23:31:59.049Z,6.45
2023-03-24T23:35:26.665Z,6.39
2023-03-24T23:38:54.784Z,6.36
2023-03-24T23:42:21.811Z,6.35
2023-03-24T23:45:49.781Z,6.35
2023-03-24T23:49:17.268Z,6.37
2023-03-24T23:52:45.121Z,6.38
2023-03-24T23:56:14.978Z,6.38
2023-03-24T23:59:40.390Z,6.38
